Time;durP1;ratioP1;P1;durP2;ratioP2;P2;SDS_P1;SDS_P2;PMS_P1;PMS_P2;Temp;Humidity;BMP_temperature;BMP_pressure;BME280_temperature;BME280_humidity;BME280_pressure;Samples;Min_cycle;Max_cycle;Signal;HPM_P1;HPM_P2
2022/04/26 03:37:40;;;;;;;120.70;108.80;;;9.80;84.80;;;;;;5053180;28;20574;-75
2022/04/26 03:40:09;;;;;;;120.03;108.13;;;9.90;85.00;;;;;;5053429;28;20595;-75
2022/04/26 03:42:37;;;;;;;120.88;108.55;;;9.80;85.00;;;;;;5053830;28;20053;-76
2022/04/26 03:45:04;;;;;;;119.55;107.53;;;9.90;84.90;;;;;;5036634;28;20053;-75
2022/04/26 03:47:31;;;;;;;119.32;107.38;;;9.90;85.00;;;;;;5052579;28;20052;-75
2022/04/26 03:49:59;;;;;;;120.25;108.18;;;9.90;84.90;;;;;;5054081;28;20054;-76
2022/04/26 03:52:26;;;;;;;121.30;108.78;;;9.90;84.90;;;;;;5036168;28;20049;-76
2022/04/26 03:54:53;;;;;;;120.05;108.47;;;9.90;84.90;;;;;;5054101;28;20593;-75
2022/04/26 03:57:20;;;;;;;119.82;108.05;;;9.90;85.00;;;;;;5036039;28;20524;-75
2022/04/26 03:59:47;;;;;;;120.35;108.32;;;9.90;85.20;;;;;;5035976;28;20080;-75
2022/04/26 04:02:14;;;;;;;118.95;107.50;;;9.90;84.90;;;;;;5052773;28;20050;-75
2022/04/26 04:04:41;;;;;;;119.82;108.28;;;9.90;84.80;;;;;;5036473;28;20076;-75
2022/04/26 04:07:09;;;;;;;120.13;108.18;;;9.90;84.90;;;;;;5052580;28;20129;-75
2022/04/26 04:09:36;;;;;;;119.00;106.90;;;9.80;84.90;;;;;;5054302;28;20061;-76
2022/04/26 04:12:03;;;;;;;119.00;107.38;;;9.80;85.00;;;;;;5036026;28;20057;-76
2022/04/26 04:14:38;;;;;;;119.38;107.40;;;9.80;85.00;;;;;;5054009;28;20049;-76
2022/04/26 04:17:05;;;;;;;122.18;110.03;;;9.70;85.20;;;;;;5036021;28;20053;-75
2022/04/26 04:19:32;;;;;;;117.90;106.03;;;9.70;85.20;;;;;;5036077;28;20141;-76
2022/04/26 04:21:59;;;;;;;118.30;106.43;;;9.70;85.20;;;;;;5052495;28;20123;-76
2022/04/26 04:24:27;;;;;;;119.93;108.13;;;9.70;85.30;;;;;;5035737;28;20053;-75
2022/04/26 04:26:55;;;;;;;120.15;108.00;;;9.70;85.30;;;;;;5052525;28;20049;-75
2022/04/26 04:29:23;;;;;;;118.53;106.82;;;9.70;85.40;;;;;;5035724;28;20824;-75
2022/04/26 04:31:50;;;;;;;120.07;108.32;;;9.70;85.30;;;;;;5052725;28;20045;-75
2022/04/26 04:34:17;;;;;;;119.82;107.90;;;9.70;85.40;;;;;;5052213;28;20593;-76
2022/04/26 04:36:44;;;;;;;120.85;108.65;;;9.70;85.50;;;;;;5034267;28;20046;-75
2022/04/26 04:39:13;;;;;;;119.47;107.68;;;9.70;85.50;;;;;;5052052;28;20045;-75
2022/04/26 04:41:41;;;;;;;118.68;106.53;;;9.70;85.60;;;;;;5036053;28;20061;-76
2022/04/26 04:44:08;;;;;;;119.35;107.55;;;9.70;85.70;;;;;;5052159;28;20054;-75
2022/04/26 04:46:35;;;;;;;118.28;106.55;;;9.70;85.70;;;;;;5036019;28;20161;-75
2022/04/26 04:49:02;;;;;;;119.93;107.95;;;9.70;85.90;;;;;;5051867;28;20064;-75
2022/04/26 04:51:30;;;;;;;117.90;106.15;;;9.70;86.00;;;;;;5035870;28;20871;-76
2022/04/26 04:53:57;;;;;;;119.40;107.68;;;9.60;85.90;;;;;;5052150;28;20124;-75
2022/04/26 04:56:24;;;;;;;117.57;106.20;;;9.70;85.80;;;;;;5053519;28;20840;-75
2022/04/26 04:58:53;;;;;;;119.25;107.32;;;9.70;86.00;;;;;;5053304;28;20058;-75
2022/04/26 05:01:20;;;;;;;118.55;106.47;;;9.70;86.20;;;;;;5053019;28;20056;-75
2022/04/26 05:03:47;;;;;;;116.55;104.97;;;9.70;86.20;;;;;;5035531;28;20503;-76
2022/04/26 05:06:15;;;;;;;118.57;106.55;;;9.70;86.20;;;;;;5034902;28;20482;-75
2022/04/26 05:08:42;;;;;;;117.60;105.82;;;9.70;86.20;;;;;;5053264;28;20053;-75
2022/04/26 05:11:09;;;;;;;119.30;107.25;;;9.70;86.30;;;;;;5051896;28;20052;-75
2022/04/26 05:13:36;;;;;;;117.28;105.28;;;9.60;86.20;;;;;;5035315;28;20506;-75
2022/04/26 05:16:05;;;;;;;117.10;105.55;;;9.70;86.30;;;;;;5052189;28;20056;-75
2022/04/26 05:18:32;;;;;;;117.35;105.43;;;9.70;86.30;;;;;;5035631;28;20092;-75
2022/04/26 05:21:00;;;;;;;116.90;105.20;;;9.70;86.40;;;;;;5051673;28;20112;-75
2022/04/26 05:26:12;;;;;;;115.80;103.97;;;9.70;86.30;;;;;;5035131;28;20058;-75
2022/04/26 05:28:39;;;;;;;117.20;105.18;;;9.70;86.50;;;;;;5052757;28;20053;-75
2022/04/26 05:31:08;;;;;;;115.05;103.47;;;9.70;86.70;;;;;;5053153;28;20060;-75
2022/04/26 05:33:35;;;;;;;114.50;103.18;;;9.70;86.60;;;;;;5035130;28;20578;-75
2022/04/26 05:36:02;;;;;;;115.80;104.20;;;9.70;86.70;;;;;;5052646;28;20073;-75
2022/04/26 05:38:29;;;;;;;115.68;103.93;;;9.70;86.80;;;;;;5052883;28;20085;-75
2022/04/26 05:40:56;;;;;;;115.05;103.45;;;9.70;86.90;;;;;;5053179;28;20081;-75
2022/04/26 05:43:22;;;;;;;114.57;103.18;;;9.70;86.90;;;;;;5035143;28;20053;-76
2022/04/26 05:45:49;;;;;;;114.63;103.22;;;9.70;87.00;;;;;;5051393;28;20124;-75
2022/04/26 05:48:18;;;;;;;117.45;105.45;;;9.70;86.90;;;;;;5035953;28;20136;-75
2022/04/26 05:50:45;;;;;;;114.55;103.50;;;9.70;87.20;;;;;;5055365;28;20057;-75
2022/04/26 05:53:12;;;;;;;114.63;103.28;;;9.70;87.10;;;;;;5038711;28;20486;-75
2022/04/26 05:55:39;;;;;;;114.72;103.45;;;9.70;87.40;;;;;;5054978;28;20592;-75
2022/04/26 05:58:06;;;;;;;114.47;102.90;;;9.70;87.30;;;;;;5054761;28;20804;-75
2022/04/26 06:00:33;;;;;;;114.85;103.10;;;9.70;87.50;;;;;;5038027;28;20096;-75
2022/04/26 06:03:00;;;;;;;115.05;103.93;;;9.70;87.60;;;;;;5038489;28;20054;-75
2022/04/26 06:05:29;;;;;;;113.55;102.38;;;9.70;87.50;;;;;;5055664;28;20068;-75
2022/04/26 06:07:56;;;;;;;116.57;104.95;;;9.70;87.80;;;;;;5053629;28;20396;-75
2022/04/26 06:10:25;;;;;;;114.53;103.18;;;9.70;87.80;;;;;;5054029;28;20050;-75
2022/04/26 06:13:17;;;;;;;113.03;101.63;;;9.80;88.00;;;;;;5056224;28;20495;-75
2022/04/26 06:15:44;;;;;;;115.85;104.30;;;9.80;88.00;;;;;;5036671;28;20046;-75
2022/04/26 06:18:11;;;;;;;113.78;102.35;;;9.80;88.10;;;;;;5036447;28;20054;-74
2022/04/26 06:20:39;;;;;;;114.72;103.45;;;9.80;88.10;;;;;;5036787;28;20077;-74
2022/04/26 06:23:06;;;;;;;114.93;103.47;;;9.80;88.10;;;;;;5054821;28;20499;-76
2022/04/26 06:25:36;;;;;;;114.20;102.97;;;9.90;88.20;;;;;;5054229;28;20045;-75
2022/04/26 06:28:04;;;;;;;113.35;102.25;;;9.90;88.00;;;;;;5040041;28;20046;-75
2022/04/26 06:30:31;;;;;;;114.20;102.97;;;9.90;88.10;;;;;;5051872;28;20430;-75
2022/04/26 06:32:57;;;;;;;114.13;102.78;;;9.90;88.10;;;;;;5036668;28;20073;-75
2022/04/26 06:35:25;;;;;;;115.70;104.13;;;10.00;88.00;;;;;;5020003;28;20523;-76
2022/04/26 06:37:54;;;;;;;114.38;103.05;;;10.00;88.00;;;;;;5037066;28;20073;-76
2022/04/26 06:40:21;;;;;;;114.65;103.45;;;10.00;87.90;;;;;;5037181;28;20538;-76
2022/04/26 06:42:48;;;;;;;112.88;102.07;;;10.00;87.60;;;;;;5034762;28;20061;-76
2022/04/26 06:45:15;;;;;;;113.80;102.55;;;10.00;87.50;;;;;;5037370;28;20128;-76
2022/04/26 06:47:44;;;;;;;113.57;102.45;;;10.10;87.60;;;;;;5037448;28;20060;-76
2022/04/26 06:50:11;;;;;;;112.68;101.68;;;10.10;87.60;;;;;;5037220;28;20052;-76
2022/04/26 06:52:38;;;;;;;114.32;102.85;;;10.10;87.50;;;;;;5054048;28;20056;-76
2022/04/26 06:55:07;;;;;;;113.45;102.10;;;10.20;87.50;;;;;;5037758;28;20050;-76
2022/04/26 06:57:36;;;;;;;113.65;102.55;;;10.10;87.20;;;;;;5054773;28;20058;-76
2022/04/26 07:00:04;;;;;;;113.30;102.13;;;10.20;87.30;;;;;;5036644;28;20050;-76
2022/04/26 07:02:31;;;;;;;113.30;102.35;;;10.20;87.30;;;;;;5036664;28;20855;-76
2022/04/26 07:04:58;;;;;;;113.13;102.10;;;10.20;87.20;;;;;;5037444;28;20531;-76
2022/04/26 07:07:25;;;;;;;113.80;102.70;;;10.20;87.10;;;;;;5036933;28;20132;-76
2022/04/26 07:09:52;;;;;;;113.82;102.35;;;10.30;87.20;;;;;;5054136;28;20050;-76
2022/04/26 07:12:20;;;;;;;114.13;102.72;;;10.30;86.90;;;;;;5053526;28;20065;-77
2022/04/26 07:14:47;;;;;;;112.90;101.80;;;10.30;86.60;;;;;;5051854;28;20170;-77
2022/04/26 07:17:17;;;;;;;114.32;103.28;;;10.30;86.50;;;;;;5036685;28;20531;-77
2022/04/26 07:19:43;;;;;;;114.82;103.70;;;10.30;86.60;;;;;;5036428;28;20131;-76
2022/04/26 07:22:10;;;;;;;114.50;103.35;;;10.40;86.50;;;;;;5020360;28;20046;-76
2022/04/26 07:24:37;;;;;;;114.47;102.93;;;10.40;86.10;;;;;;5054986;28;20061;-76
2022/04/26 07:27:04;;;;;;;114.03;103.13;;;10.40;86.10;;;;;;5052217;28;20053;-77
2022/04/26 07:29:32;;;;;;;113.85;102.60;;;10.50;85.70;;;;;;5036806;28;20049;-77
2022/04/26 07:31:59;;;;;;;112.30;101.30;;;10.50;85.10;;;;;;5054032;28;20108;-77
2022/04/26 07:34:25;;;;;;;113.22;102.15;;;10.50;84.80;;;;;;5053107;28;20050;-75
2022/04/26 07:36:54;;;;;;;116.22;105.03;;;10.50;84.80;;;;;;5036433;28;20049;-76
2022/04/26 07:39:22;;;;;;;115.40;104.15;;;10.50;85.00;;;;;;5036319;28;20049;-76
2022/04/26 07:41:50;;;;;;;113.97;102.75;;;10.50;84.60;;;;;;5052685;28;20534;-75
2022/04/26 07:44:17;;;;;;;113.85;102.88;;;10.60;84.80;;;;;;5053575;28;20057;-75
2022/04/26 07:46:49;;;;;;;113.60;102.93;;;10.60;84.80;;;;;;5035403;28;21004;-75
2022/04/26 07:49:17;;;;;;;116.32;104.90;;;10.70;84.80;;;;;;5035563;28;20043;-77
2022/04/26 07:51:44;;;;;;;114.15;103.45;;;10.70;84.40;;;;;;5051607;28;20112;-75
2022/04/26 07:54:11;;;;;;;112.07;101.28;;;10.80;83.70;;;;;;5035912;28;20073;-75
2022/04/26 07:56:38;;;;;;;114.47;103.57;;;10.80;83.30;;;;;;5033980;28;20053;-76
2022/04/26 07:59:06;;;;;;;112.63;101.75;;;10.90;83.20;;;;;;5035459;28;20049;-76
2022/04/26 08:01:35;;;;;;;114.60;103.68;;;10.90;83.10;;;;;;5035241;28;20041;-76
2022/04/26 08:04:04;;;;;;;112.05;101.18;;;10.90;82.60;;;;;;5032765;28;20615;-77
2022/04/26 08:06:31;;;;;;;113.55;102.35;;;11.00;82.10;;;;;;5016575;28;20054;-76
2022/04/26 08:08:59;;;;;;;111.82;101.07;;;11.00;81.60;;;;;;5034241;28;20161;-76
2022/04/26 08:11:28;;;;;;;113.13;102.13;;;11.00;81.10;;;;;;5016357;28;20053;-77
2022/04/26 08:13:56;;;;;;;112.65;101.95;;;11.00;80.60;;;;;;5047748;28;20060;-76
2022/04/26 08:16:22;;;;;;;112.50;101.70;;;11.00;80.00;;;;;;5018870;28;20842;-76
2022/04/26 08:18:49;;;;;;;112.05;101.15;;;11.00;79.80;;;;;;5035395;28;20079;-76
2022/04/26 08:21:18;;;;;;;112.30;101.50;;;11.00;79.90;;;;;;5035449;28;20503;-76
2022/04/26 08:29:17;;;;;;;112.78;101.95;;;11.10;79.50;;;;;;5052806;28;20137;-76
2022/04/26 08:31:44;;;;;;;113.43;102.20;;;11.10;80.00;;;;;;5053864;28;20046;-76
2022/04/26 08:34:11;;;;;;;112.35;101.90;;;11.20;80.10;;;;;;5035698;28;20046;-77
2022/04/26 08:36:39;;;;;;;113.55;102.70;;;11.30;80.10;;;;;;5035666;28;20181;-77
2022/04/26 08:39:07;;;;;;;112.55;101.78;;;11.30;79.70;;;;;;5035222;28;20081;-77
2022/04/26 08:41:34;;;;;;;112.65;101.75;;;11.40;79.20;;;;;;5035557;28;20045;-77
2022/04/26 08:44:01;;;;;;;112.22;101.60;;;11.40;78.70;;;;;;5052894;28;20054;-77
2022/04/26 08:50:59;;;;;;;110.97;100.43;;;11.40;78.50;;;;;;5034696;28;20053;-76
2022/04/26 08:52:06;;;;;;;113.70;103.00;;;11.40;78.00;;;;;;5051061;28;20057;-78
2022/04/26 08:54:33;;;;;;;114.25;103.22;;;11.40;77.70;;;;;;5051795;28;20054;-77
2022/04/26 08:57:01;;;;;;;114.43;103.65;;;11.40;77.60;;;;;;5034609;28;20127;-76
2022/04/26 08:59:30;;;;;;;114.47;103.32;;;11.50;77.60;;;;;;5034587;28;20053;-76
2022/04/26 09:02:19;;;;;;;113.85;103.05;;;11.50;77.50;;;;;;5050365;28;20061;-74
2022/04/26 09:04:47;;;;;;;115.38;104.32;;;11.50;77.50;;;;;;5033662;28;20108;-79
2022/04/26 09:07:29;;;;;;;113.22;102.47;;;11.50;77.50;;;;;;5050979;28;20526;-77
2022/04/26 09:10:08;;;;;;;112.95;102.18;;;11.60;77.30;;;;;;5049860;28;20050;-77
2022/04/26 09:13:04;;;;;;;114.00;103.40;;;11.60;76.60;;;;;;5053442;28;20500;-78
2022/04/26 09:15:37;;;;;;;113.07;102.30;;;11.60;76.50;;;;;;5052887;28;20046;-79
2022/04/26 09:18:21;;;;;;;113.93;102.93;;;11.70;76.70;;;;;;5034084;28;20049;-81
2022/04/26 09:20:49;;;;;;;115.35;104.10;;;11.80;76.90;;;;;;5034815;28;20060;-75
2022/04/26 09:23:22;;;;;;;115.05;104.38;;;11.80;76.60;;;;;;5035904;28;20077;-81
2022/04/26 09:25:53;;;;;;;114.07;103.38;;;11.80;76.40;;;;;;5038879;28;20141;-83
2022/04/26 09:28:26;;;;;;;113.65;102.85;;;11.90;75.90;;;;;;5037856;28;20092;-76
2022/04/26 09:30:53;;;;;;;115.53;104.95;;;12.00;75.60;;;;;;5038473;28;20057;-76
2022/04/26 09:33:36;;;;;;;113.65;103.15;;;12.00;75.40;;;;;;5055346;28;20593;-76
2022/04/26 09:36:06;;;;;;;113.68;102.72;;;12.10;75.70;;;;;;5051321;28;20041;-75
2022/04/26 09:38:33;;;;;;;113.80;103.18;;;12.20;75.60;;;;;;5053459;28;20053;-75
2022/04/26 09:41:02;;;;;;;112.88;102.38;;;12.20;75.30;;;;;;5037635;28;20084;-75
2022/04/26 09:43:31;;;;;;;112.93;102.35;;;12.20;74.70;;;;;;5054757;28;20060;-75
2022/04/26 09:45:59;;;;;;;114.78;103.93;;;12.30;74.20;;;;;;5037621;28;20046;-75
2022/04/26 09:48:28;;;;;;;114.45;103.78;;;12.30;73.70;;;;;;5027588;28;20071;-75
2022/04/26 09:54:24;;;;;;;113.95;103.28;;;12.30;73.80;;;;;;5034424;28;20053;-75
2022/04/26 09:56:51;;;;;;;112.55;102.05;;;12.40;74.10;;;;;;5036888;28;20081;-75
2022/04/26 09:59:27;;;;;;;115.45;104.70;;;12.40;73.90;;;;;;5036940;28;20050;-75
2022/04/26 10:01:56;;;;;;;111.57;101.30;;;12.50;74.00;;;;;;5035099;28;20076;-75
2022/04/26 10:04:24;;;;;;;115.72;105.15;;;12.60;73.90;;;;;;5035898;28;20518;-75
2022/04/26 10:06:53;;;;;;;115.78;105.15;;;12.70;73.60;;;;;;5052468;28;20041;-75
2022/04/26 10:09:21;;;;;;;113.80;103.40;;;12.70;72.80;;;;;;5052882;28;20053;-75
2022/04/26 10:11:48;;;;;;;113.85;103.35;;;12.80;72.60;;;;;;5036932;28;20057;-75
2022/04/26 10:14:15;;;;;;;116.13;105.50;;;12.80;72.00;;;;;;5035962;28;20053;-74
2022/04/26 10:16:46;;;;;;;120.45;109.13;;;12.80;71.90;;;;;;5051764;28;20076;-75
2022/04/26 10:19:13;;;;;;;114.32;103.97;;;12.90;72.30;;;;;;5019379;28;20534;-75
2022/04/26 10:21:49;;;;;;;115.30;104.70;;;13.00;72.40;;;;;;5053898;28;20517;-75
2022/04/26 10:24:19;;;;;;;115.88;105.30;;;13.00;72.00;;;;;;5036278;28;20176;-75
2022/04/26 10:26:48;;;;;;;115.35;104.70;;;13.00;71.60;;;;;;5035986;28;20053;-75
2022/04/26 10:29:17;;;;;;;117.97;107.30;;;13.20;71.60;;;;;;5035397;28;20129;-75
2022/04/26 10:31:47;;;;;;;116.75;105.63;;;13.20;71.00;;;;;;5019663;28;20149;-75
2022/04/26 10:34:26;;;;;;;116.50;105.93;;;13.30;71.00;;;;;;5035237;28;20502;-75
2022/04/26 10:36:54;;;;;;;117.47;106.78;;;13.40;70.90;;;;;;5052045;28;20058;-74
2022/04/26 10:39:27;;;;;;;116.22;105.78;;;13.40;71.10;;;;;;5052278;28;20046;-75
2022/04/26 10:41:54;;;;;;;118.43;107.38;;;13.50;70.80;;;;;;5052482;28;20056;-80
2022/04/26 10:44:33;;;;;;;116.97;106.55;;;13.60;70.00;;;;;;5035579;28;20053;-79
2022/04/26 10:47:29;;;;;;;124.72;111.25;;;13.70;69.30;;;;;;5034681;28;20052;-80
2022/04/26 10:50:02;;;;;;;116.82;105.97;;;13.80;70.20;;;;;;5033428;28;20053;-80
2022/04/26 10:52:41;;;;;;;118.20;107.70;;;13.80;69.30;;;;;;5034742;28;20419;-77
2022/04/26 10:55:20;;;;;;;120.88;110.22;;;13.90;68.70;;;;;;5034242;28;20053;-78
2022/04/26 10:57:51;;;;;;;119.05;108.45;;;14.00;68.30;;;;;;5046644;28;20060;-78
2022/04/26 11:00:21;;;;;;;119.07;108.47;;;14.10;68.30;;;;;;5028864;28;20052;-76
2022/04/26 11:02:51;;;;;;;118.15;107.55;;;14.20;68.50;;;;;;5053751;28;20061;-76
2022/04/26 11:05:19;;;;;;;120.32;109.88;;;14.20;67.90;;;;;;5035453;28;20059;-76
2022/04/26 11:07:49;;;;;;;118.82;108.43;;;14.40;67.70;;;;;;5051959;28;20054;-76
2022/04/26 11:10:19;;;;;;;118.32;108.05;;;14.40;67.40;;;;;;5034986;28;20621;-75
2022/04/26 11:12:46;;;;;;;118.38;107.97;;;14.50;67.40;;;;;;5053496;28;20058;-76
2022/04/26 11:15:15;;;;;;;115.00;104.88;;;14.50;67.30;;;;;;5053643;28;20063;-76
2022/04/26 11:17:43;;;;;;;120.60;110.15;;;14.60;66.50;;;;;;5018086;28;20053;-75
2022/04/26 11:20:14;;;;;;;117.25;107.10;;;14.70;65.40;;;;;;5051844;28;20056;-75
2022/04/26 11:22:46;;;;;;;119.85;109.57;;;14.80;64.60;;;;;;5051658;28;20144;-76
2022/04/26 11:28:03;;;;;;;117.07;106.80;;;14.90;64.10;;;;;;5034606;28;20056;-75
2022/04/26 11:30:32;;;;;;;118.25;107.72;;;15.00;63.90;;;;;;5034924;28;20053;-75
2022/04/26 11:33:00;;;;;;;119.10;108.70;;;15.00;63.30;;;;;;5032808;28;20049;-75
2022/04/26 11:35:29;;;;;;;115.85;105.75;;;15.10;63.60;;;;;;5051738;28;20060;-73
2022/04/26 11:37:57;;;;;;;118.45;108.25;;;15.10;63.50;;;;;;5050829;28;20050;-76
2022/04/26 11:40:29;;;;;;;119.32;109.13;;;15.20;63.60;;;;;;5035057;28;20053;-76
2022/04/26 11:42:58;;;;;;;117.75;107.43;;;15.30;62.30;;;;;;5034520;28;20065;-74
2022/04/26 11:45:28;;;;;;;119.78;109.30;;;15.40;63.20;;;;;;5018077;28;20057;-73
2022/04/26 11:47:56;;;;;;;122.63;112.20;;;15.50;63.40;;;;;;5033998;28;20493;-73
2022/04/26 11:50:25;;;;;;;118.32;108.07;;;15.60;62.40;;;;;;5051967;28;20131;-73
2022/04/26 11:52:59;;;;;;;119.80;109.53;;;15.70;61.70;;;;;;5051552;28;20401;-74
2022/04/26 11:55:28;;;;;;;121.10;111.00;;;15.80;61.60;;;;;;5035340;28;20064;-74
2022/04/26 11:58:16;;;;;;;121.32;111.00;;;15.90;62.10;;;;;;5052420;28;20144;-74
2022/04/26 12:01:00;;;;;;;117.85;107.85;;;15.90;61.60;;;;;;5035372;28;20052;-74
2022/04/26 12:03:30;;;;;;;118.38;108.38;;;16.10;61.50;;;;;;5035963;28;20049;-74
2022/04/26 12:05:59;;;;;;;118.60;108.30;;;16.10;60.90;;;;;;5053359;28;20054;-74
2022/04/26 12:08:28;;;;;;;120.25;109.75;;;16.20;60.00;;;;;;5052626;28;20057;-74
2022/04/26 12:10:55;;;;;;;118.32;108.22;;;16.30;60.00;;;;;;5035463;28;20052;-74
2022/04/26 12:13:33;;;;;;;117.60;107.70;;;16.40;59.70;;;;;;5051015;28;20089;-74
2022/04/26 12:16:16;;;;;;;121.20;111.00;;;16.50;59.90;;;;;;5052174;28;20106;-74
2022/04/26 12:18:54;;;;;;;123.95;113.68;;;16.60;60.30;;;;;;5033083;28;20053;-74
2022/04/26 12:21:23;;;;;;;123.22;113.15;;;16.70;59.80;;;;;;5053520;28;20086;-74
2022/04/26 12:24:11;;;;;;;122.55;112.55;;;16.70;57.90;;;;;;5034763;28;20125;-74
2022/04/26 12:26:50;;;;;;;123.85;113.75;;;16.80;58.70;;;;;;5051646;28;20053;-74
2022/04/26 12:29:17;;;;;;;121.85;111.80;;;16.80;57.90;;;;;;5035074;28;20530;-74
2022/04/26 12:31:46;;;;;;;122.38;112.07;;;16.90;57.90;;;;;;5051322;28;20480;-74
2022/04/26 12:34:17;;;;;;;121.13;111.18;;;16.90;57.80;;;;;;5035245;28;20081;-74
2022/04/26 12:37:02;;;;;;;120.80;110.72;;;17.00;57.40;;;;;;5051666;28;20061;-74
2022/04/26 12:39:43;;;;;;;119.78;109.88;;;17.10;57.70;;;;;;5035422;28;20678;-74
2022/04/26 12:42:12;;;;;;;124.47;114.22;;;17.10;57.10;;;;;;5034818;28;20054;-75
2022/04/26 12:44:50;;;;;;;123.97;113.78;;;17.20;56.20;;;;;;5033474;28;20046;-75
2022/04/26 12:52:51;;;;;;;125.43;115.28;;;17.30;56.10;;;;;;5051938;28;20084;-73
2022/04/26 12:55:31;;;;;;;127.30;117.03;;;17.40;55.50;;;;;;5034012;28;20053;-74
2022/04/26 12:58:01;;;;;;;122.18;111.88;;;17.40;55.70;;;;;;5033349;28;20076;-74
2022/04/26 13:00:29;;;;;;;129.07;118.70;;;17.50;55.30;;;;;;5051610;28;20069;-74
2022/04/26 13:02:58;;;;;;;124.43;114.32;;;17.50;55.50;;;;;;5050385;28;20057;-73
2022/04/26 13:05:25;;;;;;;126.43;116.35;;;17.60;55.10;;;;;;5033772;28;20053;-74
2022/04/26 13:07:53;;;;;;;126.55;116.35;;;17.60;54.70;;;;;;5032564;28;20081;-74
2022/04/26 13:10:22;;;;;;;124.45;114.28;;;17.70;53.80;;;;;;5031971;28;20045;-72
2022/04/26 13:12:50;;;;;;;126.60;116.65;;;17.70;53.60;;;;;;5032885;28;20081;-75
2022/04/26 13:15:19;;;;;;;129.90;119.65;;;17.70;54.50;;;;;;5032610;28;20405;-75
2022/04/26 13:17:46;;;;;;;127.15;116.85;;;17.80;54.10;;;;;;5047510;28;20053;-75
2022/04/26 13:20:13;;;;;;;127.10;117.18;;;17.90;53.50;;;;;;5033511;28;20504;-75
2022/04/26 13:22:40;;;;;;;127.95;118.05;;;17.90;53.70;;;;;;5033453;28;20085;-76
2022/04/26 13:25:08;;;;;;;122.97;113.18;;;18.00;54.30;;;;;;5050016;28;20128;-75
2022/04/26 13:27:37;;;;;;;127.80;117.75;;;18.10;52.90;;;;;;5033149;28;20107;-75
2022/04/26 13:30:07;;;;;;;131.75;121.57;;;18.20;52.30;;;;;;5049332;28;20154;-76
2022/04/26 13:32:34;;;;;;;126.38;116.18;;;18.30;52.80;;;;;;5047213;28;20503;-75
2022/04/26 13:35:02;;;;;;;126.43;116.63;;;18.40;52.40;;;;;;5049729;28;20549;-77
2022/04/26 13:37:29;;;;;;;126.50;116.60;;;18.50;52.00;;;;;;5033666;28;20100;-76
2022/04/26 13:39:58;;;;;;;129.00;119.07;;;18.60;51.80;;;;;;5051520;28;20124;-76
2022/04/26 13:42:27;;;;;;;126.47;116.68;;;18.70;51.50;;;;;;5033065;28;20053;-75
2022/04/26 13:44:54;;;;;;;130.82;120.82;;;18.70;50.80;;;;;;5033437;28;20809;-77
2022/04/26 13:47:23;;;;;;;128.82;116.53;;;18.80;51.60;;;;;;5033274;28;20057;-76
2022/04/26 13:49:51;;;;;;;125.10;115.28;;;18.80;50.90;;;;;;5033654;28;20053;-76
2022/04/26 13:52:20;;;;;;;130.45;120.35;;;18.90;50.70;;;;;;5033585;28;20061;-76
2022/04/26 13:54:47;;;;;;;130.05;120.13;;;19.00;51.50;;;;;;5032832;28;20046;-74
2022/04/26 13:57:14;;;;;;;132.80;122.55;;;19.10;52.00;;;;;;5048003;28;20057;-79
2022/04/26 13:59:41;;;;;;;130.52;120.40;;;19.10;50.80;;;;;;5033290;28;20520;-78
2022/04/26 14:02:09;;;;;;;129.68;119.57;;;19.20;50.90;;;;;;5049588;28;20056;-78
2022/04/26 14:04:37;;;;;;;132.98;123.03;;;19.30;50.40;;;;;;5032925;28;20149;-77
2022/04/26 14:07:04;;;;;;;136.77;126.30;;;19.30;50.70;;;;;;5032298;28;20104;-78
2022/04/26 14:09:32;;;;;;;134.13;124.13;;;19.30;50.20;;;;;;5016904;28;20597;-75
2022/04/26 14:11:59;;;;;;;134.75;124.55;;;19.40;50.20;;;;;;5052831;28;20053;-75
2022/04/26 14:22:43;;;;;;;128.13;118.13;;;19.70;50.60;;;;;;5036205;28;20506;-75
2022/04/26 14:25:11;;;;;;;130.55;120.63;;;19.70;50.10;;;;;;5036459;28;20104;-75
2022/04/26 14:27:40;;;;;;;130.57;120.95;;;19.80;49.70;;;;;;5036281;28;20057;-75
2022/04/26 14:30:10;;;;;;;130.88;121.07;;;19.90;50.50;;;;;;5036558;28;20523;-75
2022/04/26 14:32:37;;;;;;;130.10;120.00;;;20.10;50.20;;;;;;5036251;28;20540;-75
2022/04/26 14:35:07;;;;;;;131.13;121.43;;;20.10;49.00;;;;;;5053976;28;20056;-75
2022/04/26 14:37:34;;;;;;;128.15;118.63;;;20.20;48.50;;;;;;5051328;28;20495;-75
2022/04/26 14:40:01;;;;;;;124.97;115.57;;;20.20;48.50;;;;;;5036957;28;20053;-75
2022/04/26 14:42:28;;;;;;;125.80;116.20;;;20.30;48.50;;;;;;5054363;28;20116;-75
2022/04/26 14:44:55;;;;;;;131.60;122.00;;;20.30;48.50;;;;;;5035975;28;20045;-75
2022/04/26 14:47:22;;;;;;;134.68;124.85;;;20.40;47.80;;;;;;5053991;28;20145;-75
2022/04/26 14:49:49;;;;;;;131.02;121.47;;;20.50;48.00;;;;;;5054488;28;20451;-76
2022/04/26 14:52:21;;;;;;;135.77;125.97;;;20.50;48.30;;;;;;5036197;28;20052;-75
2022/04/26 14:54:48;;;;;;;132.10;122.50;;;20.60;48.20;;;;;;5054146;28;20057;-75
2022/04/26 14:57:17;;;;;;;134.45;124.38;;;20.60;48.00;;;;;;5036041;28;20049;-75
2022/04/26 14:59:47;;;;;;;125.32;115.65;;;20.60;48.40;;;;;;5054153;28;20061;-75
2022/04/26 15:02:17;;;;;;;126.30;116.80;;;20.70;47.70;;;;;;5036166;28;20069;-75
2022/04/26 15:04:44;;;;;;;125.68;116.07;;;20.70;46.50;;;;;;5035587;28;20490;-75
2022/04/26 15:07:11;;;;;;;126.45;116.90;;;20.70;46.40;;;;;;5053653;28;20079;-76
2022/04/26 15:09:42;;;;;;;126.35;117.05;;;20.70;46.50;;;;;;5035967;28;20143;-75
2022/04/26 15:17:39;;;;;;;127.97;118.47;;;20.60;46.20;;;;;;5051872;28;20044;-75
2022/04/26 15:20:07;;;;;;;127.57;118.07;;;20.60;46.80;;;;;;5035415;28;20045;-75
2022/04/26 15:22:36;;;;;;;124.82;115.47;;;20.60;46.30;;;;;;5035156;28;20405;-76
2022/04/26 15:25:06;;;;;;;126.70;117.10;;;20.60;46.10;;;;;;5034218;28;20519;-75
2022/04/26 15:27:35;;;;;;;125.53;116.28;;;20.50;46.20;;;;;;5034439;28;20049;-78
2022/04/26 15:30:02;;;;;;;127.47;118.05;;;20.40;46.10;;;;;;5053081;28;20057;-77
2022/04/26 15:32:29;;;;;;;127.47;117.78;;;20.30;46.50;;;;;;5033152;28;20053;-77
2022/04/26 15:34:56;;;;;;;126.97;117.55;;;20.10;46.30;;;;;;5034642;28;20049;-77
2022/04/26 15:37:24;;;;;;;127.93;118.18;;;20.00;46.40;;;;;;5034244;28;20049;-77
2022/04/26 15:39:52;;;;;;;124.28;114.75;;;19.90;47.00;;;;;;5051605;28;20557;-78
2022/04/26 15:42:20;;;;;;;127.13;117.25;;;19.80;47.00;;;;;;5051607;28;20187;-78
2022/04/26 15:44:48;;;;;;;125.07;115.57;;;19.70;47.00;;;;;;5035001;28;20112;-77
2022/04/26 15:47:15;;;;;;;128.32;118.72;;;19.70;47.20;;;;;;5033959;28;20088;-78
2022/04/26 15:49:43;;;;;;;126.65;117.30;;;19.70;47.50;;;;;;5050959;28;20538;-78
2022/04/26 15:52:10;;;;;;;125.72;116.22;;;19.60;47.70;;;;;;5034656;28;20053;-75
2022/04/26 15:54:37;;;;;;;125.60;116.03;;;19.60;47.50;;;;;;5050928;28;20101;-80
2022/04/26 15:57:04;;;;;;;129.70;119.78;;;19.60;47.60;;;;;;5033351;28;20049;-80
2022/04/26 15:59:33;;;;;;;123.93;114.45;;;19.70;47.60;;;;;;5033491;28;20087;-80
2022/04/26 16:02:00;;;;;;;123.57;114.20;;;19.70;46.50;;;;;;5049697;28;20585;-80
2022/04/26 16:04:27;;;;;;;127.68;118.18;;;19.80;46.40;;;;;;5033933;28;20093;-79
2022/04/26 16:06:54;;;;;;;125.35;115.55;;;19.80;46.80;;;;;;5033938;28;20070;-79
2022/04/26 16:20:34;;;;;;;;;;;20.00;46.90;;;;;;5034908;28;20042;-78
2022/04/26 16:23:03;;;;;;;125.00;115.20;;;20.00;48.80;;;;;;5034430;28;19925;-78
2022/04/26 16:25:30;;;;;;;124.85;115.53;;;20.00;46.80;;;;;;5033973;28;20112;-78
2022/04/26 16:28:00;;;;;;;125.72;116.15;;;19.90;46.60;;;;;;5033879;28;20061;-77
2022/04/26 16:30:29;;;;;;;123.22;113.82;;;19.90;46.70;;;;;;5050276;28;20045;-77
2022/04/26 16:32:57;;;;;;;123.85;114.45;;;19.90;46.60;;;;;;5033930;28;20049;-77
2022/04/26 16:35:24;;;;;;;126.75;117.05;;;19.90;46.50;;;;;;5033570;28;20045;-77
2022/04/26 16:37:52;;;;;;;125.78;116.38;;;19.90;46.60;;;;;;5051563;28;20057;-78
2022/04/26 16:40:19;;;;;;;126.05;116.55;;;20.00;46.90;;;;;;5051992;28;20057;-78
2022/04/26 16:42:46;;;;;;;122.65;113.30;;;20.00;46.50;;;;;;5033343;28;20075;-77
2022/04/26 16:45:13;;;;;;;121.97;112.68;;;20.00;46.60;;;;;;5050356;28;20532;-78